Time;durP1;ratioP1;P1;durP2;ratioP2;P2;SDS_P1;SDS_P2;PMS_P1;PMS_P2;Temp;Humidity;BMP_temperature;BMP_pressure;BME280_temperature;BME280_humidity;BME280_pressure;Samples;Min_cycle;Max_cycle;Signal;HPM_P1;HPM_P2
2022/03/07 00:03:16;;;;;;;4.90;4.50;;;;;;;-1.43;100.00;99167.13;10272430;28;20161;-75
2022/03/07 00:08:20;;;;;;;5.60;4.47;;;;;;;-1.42;100.00;99170.63;10288897;28;20114;-75
2022/03/07 00:13:37;;;;;;;5.68;4.70;;;;;;;-1.41;100.00;99170.53;10286107;28;20110;-75
2022/03/07 00:18:44;;;;;;;5.30;4.80;;;;;;;-1.41;100.00;99164.41;10287919;28;20046;-76
2022/03/07 00:23:47;;;;;;;4.90;4.43;;;;;;;-1.40;100.00;99166.13;10284787;28;20050;-76
2022/03/07 00:28:50;;;;;;;5.00;4.60;;;;;;;-1.40;100.00;99166.97;10286673;28;20129;-75
2022/03/07 00:33:55;;;;;;;4.75;4.35;;;;;;;-1.38;100.00;99164.28;10269320;28;20074;-75
2022/03/07 00:38:58;;;;;;;5.07;4.57;;;;;;;-1.36;100.00;99164.19;10269880;28;20071;-75
2022/03/07 00:44:01;;;;;;;5.05;4.55;;;;;;;-1.35;100.00;99169.41;10281088;28;20507;-76
2022/03/07 00:49:06;;;;;;;4.50;4.10;;;;;;;-1.37;100.00;99176.56;10286695;28;20102;-75
2022/03/07 00:54:10;;;;;;;4.78;4.03;;;;;;;-1.35;100.00;99169.41;10285325;28;20130;-75
2022/03/07 00:59:13;;;;;;;6.30;4.13;;;;;;;-1.39;100.00;99183.72;10283011;28;20043;-75
2022/03/07 01:04:18;;;;;;;4.78;4.35;;;;;;;-1.61;100.00;99179.34;10267487;28;20384;-75
2022/03/07 01:09:21;;;;;;;5.55;4.07;;;;;;;-1.62;100.00;99174.13;10284439;28;20047;-75
2022/03/07 01:14:24;;;;;;;4.55;4.15;;;;;;;-1.63;100.00;99159.19;10267084;28;20488;-75
2022/03/07 01:19:28;;;;;;;4.97;3.80;;;;;;;-1.66;100.00;99162.81;10287765;28;20027;-75
2022/03/07 01:24:31;;;;;;;4.45;3.95;;;;;;;-1.74;100.00;99152.56;10267471;28;20219;-75
2022/03/07 01:29:35;;;;;;;4.80;4.07;;;;;;;-1.69;100.00;99149.75;10267908;28;20065;-75
2022/03/07 01:34:39;;;;;;;5.10;3.78;;;;;;;-1.69;100.00;99147.09;10274276;28;20146;-77
2022/03/07 01:39:44;;;;;;;4.35;3.85;;;;;;;-1.67;100.00;99147.91;10296427;28;20070;-78
2022/03/07 01:44:47;;;;;;;4.07;3.30;;;;;;;-1.65;100.00;99151.34;10277380;28;20165;-76
2022/03/07 01:49:55;;;;;;;4.20;3.65;;;;;;;-1.65;100.00;99135.47;10319741;28;20061;-76
2022/03/07 01:54:58;;;;;;;3.75;3.30;;;;;;;-1.64;100.00;99134.56;10290060;28;20046;-79
2022/03/07 02:00:07;;;;;;;4.18;3.80;;;;;;;-1.62;100.00;99132.72;10280951;28;20049;-79
2022/03/07 02:05:16;;;;;;;4.50;4.10;;;;;;;-1.59;100.00;99135.19;10298763;28;20059;-79
2022/03/07 02:10:27;;;;;;;4.00;3.60;;;;;;;-1.63;100.00;99123.06;10285992;28;20139;-80
2022/03/07 02:15:33;;;;;;;4.35;3.95;;;;;;;-1.63;100.00;99127.47;10281180;28;20105;-79
2022/03/07 02:20:38;;;;;;;4.60;4.18;;;;;;;-1.66;100.00;99125.84;10286358;28;20113;-79
2022/03/07 02:25:43;;;;;;;5.28;4.03;;;;;;;-1.74;100.00;99120.03;10302359;28;20047;-80
2022/03/07 02:30:46;;;;;;;5.30;4.35;;;;;;;-1.79;100.00;99117.59;10285805;28;20050;-81
2022/03/07 02:35:49;;;;;;;4.60;4.18;;;;;;;-1.87;100.00;99115.28;10286605;28;20499;-77
2022/03/07 02:40:54;;;;;;;4.40;4.00;;;;;;;-1.94;100.00;99121.72;10281463;28;20117;-79
2022/03/07 02:45:58;;;;;;;4.47;4.07;;;;;;;-2.01;100.00;99122.91;10279817;28;20062;-79
2022/03/07 02:51:02;;;;;;;4.45;3.35;;;;;;;-2.03;100.00;99132.69;10289709;28;20054;-78
2022/03/07 02:56:07;;;;;;;3.30;2.95;;;;;;;-1.97;100.00;99128.94;10320936;28;20058;-79
2022/03/07 03:01:11;;;;;;;4.68;3.15;;;;;;;-1.93;100.00;99131.38;10303761;28;20042;-78
2022/03/07 03:06:14;;;;;;;4.57;2.78;;;;;;;-1.89;100.00;99127.69;10287582;28;20289;-77
2022/03/07 03:11:18;;;;;;;3.85;3.20;;;;;;;-1.85;100.00;99131.03;10281926;28;20511;-78
2022/03/07 03:16:21;;;;;;;3.10;2.80;;;;;;;-1.80;100.00;99133.50;10301996;28;20039;-78
2022/03/07 03:21:27;;;;;;;3.45;2.70;;;;;;;-1.78;100.00;99137.81;10283899;28;20443;-78
2022/03/07 03:26:32;;;;;;;4.07;3.10;;;;;;;-1.76;100.00;99138.56;10293174;28;20051;-78
2022/03/07 03:31:36;;;;;;;3.55;3.25;;;;;;;-1.76;100.00;99133.28;10291398;28;20049;-78
2022/03/07 03:36:39;;;;;;;4.32;3.50;;;;;;;-1.71;100.00;99141.03;10294972;28;20047;-79
2022/03/07 03:41:43;;;;;;;3.70;3.10;;;;;;;-1.70;100.00;99142.72;10294075;28;20500;-78
2022/03/07 03:46:47;;;;;;;3.20;2.65;;;;;;;-1.68;100.00;99138.25;10293821;28;20051;-78
2022/03/07 03:51:49;;;;;;;3.25;2.70;;;;;;;-1.68;100.00;99138.25;10293985;28;20092;-79
2022/03/07 03:56:54;;;;;;;2.50;2.30;;;;;;;-1.67;100.00;99136.47;10277787;28;20053;-78
2022/03/07 04:01:57;;;;;;;2.75;2.53;;;;;;;-1.67;100.00;99137.31;10278824;28;20479;-78
2022/03/07 04:07:00;;;;;;;3.60;3.03;;;;;;;-1.68;100.00;99132.97;10281549;28;20105;-78
2022/03/07 04:12:07;;;;;;;4.85;3.28;;;;;;;-1.68;100.00;99143.53;10278446;28;20082;-81
2022/03/07 04:17:10;;;;;;;3.55;2.90;;;;;;;-1.68;100.00;99140.88;10283788;28;20181;-77
2022/03/07 04:22:18;;;;;;;3.05;2.60;;;;;;;-1.66;100.00;99149.63;10287472;28;20054;-76
2022/03/07 04:27:22;;;;;;;3.65;3.15;;;;;;;-1.65;100.00;99139.91;10307586;28;20035;-76
2022/03/07 04:32:25;;;;;;;3.38;2.78;;;;;;;-1.72;100.00;99148.09;10277069;28;20104;-79
2022/03/07 04:37:28;;;;;;;3.78;2.97;;;;;;;-1.83;100.00;99152.97;10285054;28;20062;-77
2022/03/07 04:42:33;;;;;;;3.55;2.78;;;;;;;-1.90;100.00;99141.81;10266347;28;20061;-74
2022/03/07 04:47:36;;;;;;;3.85;2.95;;;;;;;-1.92;100.00;99154.22;10270712;28;20146;-78
2022/03/07 04:52:39;;;;;;;3.13;2.80;;;;;;;-1.90;100.00;99152.38;10286132;28;20043;-79
2022/03/07 04:57:44;;;;;;;3.38;3.08;;;;;;;-1.96;100.00;99157.94;10295233;28;20073;-78
2022/03/07 05:02:47;;;;;;;3.65;2.70;;;;;;;-1.98;100.00;99159.78;10268719;28;21306;-77
2022/03/07 05:07:51;;;;;;;4.65;2.70;;;;;;;-1.98;100.00;99158.88;10290570;28;20518;-78
2022/03/07 05:12:57;;;;;;;2.83;2.50;;;;;;;-2.00;100.00;99166.03;10302505;28;20043;-77
2022/03/07 05:18:00;;;;;;;3.60;3.30;;;;;;;-1.98;100.00;99175.63;10281194;28;20069;-77
2022/03/07 05:23:04;;;;;;;4.80;3.80;;;;;;;-1.99;100.00;99170.38;10397984;23;20049;-81
2022/03/07 05:28:08;;;;;;;4.35;3.95;;;;;;;-2.00;100.00;99166.88;10422613;28;20810;-80
2022/03/07 05:33:11;;;;;;;4.18;3.78;;;;;;;-2.00;100.00;99177.44;10420877;28;20053;-81
2022/03/07 05:38:14;;;;;;;5.40;3.80;;;;;;;-1.99;100.00;99171.25;10373408;22;20598;-63
2022/03/07 05:43:18;;;;;;;3.85;3.30;;;;;;;-1.98;100.00;99175.63;10338505;28;20057;-63
2022/03/07 05:48:21;;;;;;;4.07;3.40;;;;;;;-1.95;100.00;99178.13;10302926;28;20038;-63
2022/03/07 05:53:24;;;;;;;3.95;3.65;;;;;;;-1.96;100.00;99189.63;10300173;28;20046;-63
2022/03/07 05:58:29;;;;;;;4.18;3.50;;;;;;;-1.96;100.00;99196.66;10297254;28;20051;-62
2022/03/07 06:03:32;;;;;;;5.10;3.30;;;;;;;-1.95;100.00;99195.75;10293345;28;20081;-63
2022/03/07 06:08:35;;;;;;;4.28;3.40;;;;;;;-1.92;100.00;99199.13;10293335;28;20081;-62
2022/03/07 06:13:40;;;;;;;3.53;3.22;;;;;;;-1.88;100.00;99199.84;10297933;28;20105;-63
2022/03/07 06:18:43;;;;;;;4.00;3.30;;;;;;;-1.86;100.00;99209.44;10294027;28;21392;-62
2022/03/07 06:23:46;;;;;;;4.00;3.17;;;;;;;-1.82;100.00;99218.09;10297341;28;20125;-61
2022/03/07 06:28:50;;;;;;;5.78;2.78;;;;;;;-1.76;100.00;99216.97;10292145;28;20047;-62
2022/03/07 06:33:53;;;;;;;3.55;3.08;;;;;;;-1.71;100.00;99229.06;10305130;28;20477;-60
2022/03/07 06:38:56;;;;;;;3.85;2.72;;;;;;;-1.66;100.00;99230.69;10302892;28;20055;-62
2022/03/07 06:44:01;;;;;;;4.32;3.20;;;;;;;-1.61;100.00;99237.47;10291490;28;20069;-63
2022/03/07 06:49:04;;;;;;;3.70;2.90;;;;;;;-1.56;100.00;99232.84;10303840;28;20039;-62
2022/03/07 06:54:07;;;;;;;6.13;2.97;;;;;;;-1.54;100.00;99230.16;10283799;28;20426;-61
2022/03/07 06:59:13;;;;;;;3.92;2.70;;;;;;;-1.53;100.00;99228.38;10296956;28;20047;-61
2022/03/07 07:04:16;;;;;;;3.65;2.53;;;;;;;-1.52;100.00;99227.44;10292184;28;20050;-61
2022/03/07 07:09:19;;;;;;;4.05;2.97;;;;;;;-1.60;100.00;99231.28;10291709;28;20083;-61
2022/03/07 07:14:23;;;;;;;3.15;2.85;;;;;;;-1.68;100.00;99236.00;10286419;28;20051;-62
2022/03/07 07:19:26;;;;;;;4.32;2.90;;;;;;;-1.76;100.00;99248.69;10291456;28;20046;-60
2022/03/07 07:24:29;;;;;;;4.88;3.30;;;;;;;-1.68;100.00;99245.72;10283502;28;20069;-60
2022/03/07 07:29:34;;;;;;;4.57;2.92;;;;;;;-1.67;100.00;99258.84;10291927;28;20125;-60
2022/03/07 07:34:37;;;;;;;3.78;2.75;;;;;;;-1.59;100.00;99267.31;10287333;28;20107;-60
2022/03/07 07:39:40;;;;;;;3.63;2.90;;;;;;;-1.53;100.00;99270.66;10285887;28;20181;-59
2022/03/07 07:44:44;;;;;;;4.28;3.03;;;;;;;-1.47;100.00;99273.91;10284868;28;20325;-57
2022/03/07 07:49:47;;;;;;;4.68;3.00;;;;;;;-1.37;100.00;99269.09;10283872;28;20042;-59
2022/03/07 07:54:50;;;;;;;4.30;3.53;;;;;;;-1.14;100.00;99261.97;10280168;28;20395;-58
2022/03/07 07:59:55;;;;;;;5.30;3.20;;;;;;;-1.01;100.00;99268.44;10284450;28;20089;-59
2022/03/07 08:05:20;;;;;;;3.90;2.90;;;;;;;-0.82;100.00;99264.97;10311530;28;20045;-60
2022/03/07 08:10:23;;;;;;;4.78;2.70;;;;;;;-0.71;100.00;99262.69;10290572;28;20102;-60
2022/03/07 08:15:29;;;;;;;3.30;2.42;;;;;;;-0.57;100.00;99271.81;10282799;28;20078;-59
2022/03/07 08:20:33;;;;;;;3.70;2.42;;;;;;;-0.45;100.00;99259.78;10286816;28;20145;-62
2022/03/07 08:25:36;;;;;;;3.40;2.60;;;;;;;-0.29;100.00;99270.53;10282319;28;20070;-63
2022/03/07 08:30:40;;;;;;;3.60;2.30;;;;;;;-0.18;100.00;99278.84;10276319;28;20098;-57
2022/03/07 08:35:43;;;;;;;4.53;2.40;;;;;;;-0.13;100.00;99284.75;10292062;28;20062;-62
2022/03/07 08:40:48;;;;;;;2.53;2.30;;;;;;;-0.01;100.00;99284.19;10289076;28;20043;-57
2022/03/07 08:45:52;;;;;;;3.00;2.40;;;;;;;0.11;100.00;99280.09;10298346;23;20056;-61
2022/03/07 08:50:59;;;;;;;3.25;2.22;;;;;;;0.08;100.00;99285.53;10297861;28;20120;-57
2022/03/07 08:56:02;;;;;;;2.58;2.03;;;;;;;0.18;100.00;99291.25;10314705;28;20081;-57
2022/03/07 09:01:26;;;;;;;4.03;2.05;;;;;;;0.26;100.00;99299.69;10283452;28;20039;-58
2022/03/07 09:06:30;;;;;;;2.60;1.77;;;;;;;0.47;100.00;99288.97;10292241;28;20574;-57
2022/03/07 09:11:33;;;;;;;1.73;1.50;;;;;;;0.58;100.00;99291.09;10281374;28;20085;-57
2022/03/07 09:16:37;;;;;;;2.10;1.48;;;;;;;0.67;100.00;99292.41;10288743;28;20548;-56
2022/03/07 09:21:40;;;;;;;2.22;1.90;;;;;;;0.79;100.00;99288.31;10284689;28;20050;-55
2022/03/07 09:26:43;;;;;;;2.45;1.80;;;;;;;0.79;100.00;99290.94;10282299;28;20546;-55
2022/03/07 09:31:48;;;;;;;2.10;1.80;;;;;;;0.91;100.00;99296.47;10289650;28;20493;-59
2022/03/07 09:36:51;;;;;;;2.45;1.50;;;;;;;1.04;100.00;99301.16;10291673;28;20046;-54
2022/03/07 09:41:54;;;;;;;4.22;1.80;;;;;;;1.13;100.00;99303.31;10290231;28;20071;-57
2022/03/07 09:47:00;;;;;;;3.83;2.10;;;;;;;1.06;100.00;99294.81;10282721;28;20062;-67
2022/03/07 09:52:04;;;;;;;2.35;1.92;;;;;;;1.28;100.00;99304.34;10288521;28;20479;-62
2022/03/07 09:57:08;;;;;;;2.80;1.50;;;;;;;1.50;100.00;99298.75;10289217;28;20058;-67
2022/03/07 10:02:14;;;;;;;2.00;1.60;;;;;;;1.78;100.00;99307.00;10299494;28;20043;-59
2022/03/07 10:07:18;;;;;;;4.15;1.50;;;;;;;1.81;100.00;99291.78;10292018;28;20053;-58
2022/03/07 10:12:28;;;;;;;1.90;1.40;;;;;;;1.92;100.00;99285.00;10297592;28;20137;-55
2022/03/07 10:17:32;;;;;;;2.55;1.30;;;;;;;2.04;100.00;99287.00;10304285;28;20129;-63
2022/03/07 10:22:35;;;;;;;2.15;1.20;;;;;;;2.18;98.64;99298.63;10300639;28;20066;-58
2022/03/07 10:27:41;;;;;;;1.50;1.40;;;;;;;2.21;92.92;99293.16;10293838;28;20097;-65
2022/03/07 10:32:53;;;;;;;1.73;1.40;;;;;;;2.13;94.47;99285.59;10297332;28;21100;-58
2022/03/07 10:37:58;;;;;;;1.85;1.42;;;;;;;2.38;98.36;99277.09;10293088;28;20047;-55
2022/03/07 10:43:03;;;;;;;2.03;1.63;;;;;;;2.45;91.94;99277.59;10297863;28;20055;-59
2022/03/07 10:48:08;;;;;;;2.00;1.38;;;;;;;2.57;92.22;99278.69;10298267;28;20069;-56
2022/03/07 10:53:11;;;;;;;1.98;1.20;;;;;;;2.65;83.30;99260.47;10293572;28;20129;-56
2022/03/07 10:58:15;;;;;;;2.00;1.33;;;;;;;2.76;82.48;99262.50;10288428;28;20474;-60
2022/03/07 11:03:22;;;;;;;1.30;1.20;;;;;;;2.70;85.72;99253.06;10310582;28;20051;-59
2022/03/07 11:08:26;;;;;;;1.20;1.10;;;;;;;2.76;83.00;99263.34;10292713;28;20042;-56
2022/03/07 11:13:31;;;;;;;2.33;1.35;;;;;;;2.66;73.79;99261.34;10284388;28;20066;-56
2022/03/07 11:18:35;;;;;;;1.27;1.15;;;;;;;2.76;81.88;99276.66;10284216;28;20054;-57
2022/03/07 11:23:38;;;;;;;2.67;1.15;;;;;;;2.71;79.87;99249.47;10291052;28;20062;-59
2022/03/07 11:29:34;;;;;;;1.98;1.02;;;;;;;2.75;74.84;99259.00;10287304;28;20131;-61
2022/03/07 11:34:52;;;;;;;1.95;1.40;;;;;;;3.00;78.72;99249.50;10283081;28;20066;-71
2022/03/07 11:39:56;;;;;;;1.55;1.20;;;;;;;2.95;79.16;99235.66;10287354;28;20466;-60
2022/03/07 11:45:06;;;;;;;1.60;1.30;;;;;;;3.12;78.53;99247.09;10285010;28;20050;-61
2022/03/07 11:50:11;;;;;;;1.60;1.15;;;;;;;3.41;84.11;99241.75;10294042;28;20094;-62
2022/03/07 11:55:16;;;;;;;2.28;1.30;;;;;;;3.61;81.66;99233.38;10286394;28;20134;-59
2022/03/07 12:00:22;;;;;;;1.70;1.20;;;;;;;3.55;75.94;99228.44;10284087;28;20078;-62
2022/03/07 12:05:29;;;;;;;4.55;1.50;;;;;;;3.39;72.76;99212.56;10288299;28;20043;-56
2022/03/07 12:10:32;;;;;;;2.60;1.30;;;;;;;3.23;74.12;99218.84;10279809;28;20130;-68
2022/03/07 12:15:47;;;;;;;2.63;1.25;;;;;;;3.34;71.78;99198.66;10280463;28;20529;-55
2022/03/07 12:20:54;;;;;;;1.88;1.25;;;;;;;3.47;73.15;99194.28;10280975;28;20546;-59
2022/03/07 12:25:59;;;;;;;2.03;1.23;;;;;;;3.69;73.44;99199.09;10283886;28;20082;-63
2022/03/07 12:31:04;;;;;;;1.20;1.10;;;;;;;3.72;71.31;99194.50;10298455;28;20530;-58
2022/03/07 12:36:12;;;;;;;2.28;1.40;;;;;;;3.75;67.67;99199.66;10303129;28;20121;-59
2022/03/07 12:41:16;;;;;;;3.00;1.23;;;;;;;3.91;75.85;99191.50;10285646;28;20130;-61
2022/03/07 12:46:20;;;;;;;1.83;1.20;;;;;;;4.32;71.42;99191.44;10285926;28;20562;-56
2022/03/07 12:51:26;;;;;;;2.85;1.10;;;;;;;4.60;70.93;99200.28;10285003;28;20046;-67
2022/03/07 12:56:36;;;;;;;2.33;1.23;;;;;;;4.81;66.02;99202.44;10287166;28;20133;-57
2022/03/07 13:01:48;;;;;;;2.13;1.20;;;;;;;5.13;65.90;99199.34;10289467;28;20114;-68
2022/03/07 13:06:54;;;;;;;1.42;1.20;;;;;;;5.47;66.28;99172.06;10287582;28;20511;-58
2022/03/07 13:11:57;;;;;;;2.35;1.30;;;;;;;6.08;67.69;99181.94;10293170;28;20049;-61
2022/03/07 13:17:06;;;;;;;3.42;1.17;;;;;;;6.52;61.20;99177.75;10284713;28;20050;-58
2022/03/07 13:22:11;;;;;;;3.53;1.30;;;;;;;6.07;59.59;99172.22;10282277;28;20117;-59
2022/03/07 13:27:14;;;;;;;2.63;1.50;;;;;;;5.54;61.54;99175.97;10284593;28;20049;-61
2022/03/07 13:32:19;;;;;;;2.65;1.70;;;;;;;5.32;62.18;99169.50;10290097;28;20098;-59
2022/03/07 13:37:39;;;;;;;2.08;1.50;;;;;;;5.23;61.89;99171.00;10291041;28;20057;-57
2022/03/07 13:42:48;;;;;;;3.28;1.40;;;;;;;5.57;63.90;99158.91;10287354;28;20046;-69
2022/03/07 13:47:55;;;;;;;1.77;1.40;;;;;;;5.66;61.74;99160.88;10305400;28;20137;-57
2022/03/07 13:53:05;;;;;;;1.67;1.50;;;;;;;5.82;59.37;99152.59;10287461;28;20456;-67
2022/03/07 13:58:14;;;;;;;1.60;1.50;;;;;;;5.49;59.45;99157.59;10297747;28;20077;-60
2022/03/07 14:03:19;;;;;;;2.33;1.65;;;;;;;5.97;62.80;99150.59;10303460;28;20499;-59
2022/03/07 14:08:33;;;;;;;3.60;1.55;;;;;;;6.00;61.83;99147.75;10306927;28;20347;-57
2022/03/07 14:13:39;;;;;;;2.00;1.80;;;;;;;5.92;64.74;99140.25;10304707;28;20471;-64
2022/03/07 14:18:45;;;;;;;2.03;1.80;;;;;;;5.72;62.75;99139.03;10296537;28;20058;-58
2022/03/07 14:23:54;;;;;;;2.53;2.10;;;;;;;5.58;63.39;99134.72;10297789;28;20089;-61
2022/03/07 14:29:03;;;;;;;2.45;1.95;;;;;;;5.85;64.58;99128.31;10287016;28;20482;-64
2022/03/07 14:34:07;;;;;;;5.57;2.50;;;;;;;5.21;64.77;99119.53;10288275;28;20051;-63
2022/03/07 14:39:12;;;;;;;2.38;2.17;;;;;;;5.62;64.16;99109.47;10293666;28;20062;-57
2022/03/07 14:44:16;;;;;;;3.05;2.17;;;;;;;5.79;62.40;99116.25;10297151;28;20055;-62
2022/03/07 14:49:19;;;;;;;3.28;2.28;;;;;;;5.53;63.12;99097.63;10329862;23;20066;-63
2022/03/07 14:54:25;;;;;;;2.72;2.53;;;;;;;5.75;63.13;99106.75;10324702;28;20038;-65
2022/03/07 14:59:28;;;;;;;3.35;2.40;;;;;;;5.88;64.66;99095.97;10308457;28;20073;-62
2022/03/07 15:04:32;;;;;;;3.35;2.60;;;;;;;5.88;65.51;99098.66;10283124;28;20078;-63
2022/03/07 15:09:45;;;;;;;2.60;2.40;;;;;;;5.67;64.57;99099.28;10285582;28;20126;-64
2022/03/07 15:14:51;;;;;;;2.50;2.30;;;;;;;6.18;63.18;99089.31;10290283;28;20050;-64
2022/03/07 15:19:55;;;;;;;2.50;2.30;;;;;;;6.56;61.03;99079.31;10284115;28;20039;-64
2022/03/07 15:24:59;;;;;;;2.63;2.08;;;;;;;6.78;61.53;99090.03;10283706;28;20066;-64
2022/03/07 15:30:04;;;;;;;4.70;2.20;;;;;;;6.44;61.37;99092.66;10299070;28;20056;-63
2022/03/07 15:35:08;;;;;;;2.42;2.20;;;;;;;6.41;61.15;99095.56;10312222;28;20065;-63
2022/03/07 15:40:15;;;;;;;4.80;2.13;;;;;;;6.28;61.57;99092.16;10300256;28;20121;-64
2022/03/07 15:45:19;;;;;;;2.50;2.08;;;;;;;6.16;65.33;99092.13;10305161;28;20888;-62
2022/03/07 15:50:22;;;;;;;4.10;2.10;;;;;;;6.43;65.56;99096.31;10303302;28;20057;-64
2022/03/07 15:55:27;;;;;;;2.05;1.90;;;;;;;6.46;65.47;99100.59;10289741;28;20154;-62
2022/03/07 16:00:30;;;;;;;4.10;2.03;;;;;;;6.42;64.94;99102.63;10295189;28;20054;-61
2022/03/07 16:05:33;;;;;;;2.65;1.95;;;;;;;6.44;64.96;99097.19;10299805;28;20454;-64
2022/03/07 16:10:41;;;;;;;2.10;1.90;;;;;;;6.48;63.12;99099.50;10296759;28;20061;-66
2022/03/07 16:15:46;;;;;;;2.45;1.83;;;;;;;6.48;64.38;99095.97;10295161;28;20075;-62
2022/03/07 16:20:50;;;;;;;2.83;1.80;;;;;;;6.01;66.74;99099.47;10301339;28;20047;-62
2022/03/07 16:25:56;;;;;;;2.25;1.70;;;;;;;6.14;68.13;99102.09;10298710;28;20051;-63
2022/03/07 16:30:59;;;;;;;2.35;2.13;;;;;;;6.07;67.29;99102.66;10304009;28;20043;-65
2022/03/07 16:36:04;;;;;;;4.22;2.08;;;;;;;6.02;67.07;99108.38;10287448;28;20047;-61
2022/03/07 16:41:09;;;;;;;6.07;2.30;;;;;;;6.02;68.18;99111.03;10300655;28;20466;-63
2022/03/07 16:46:12;;;;;;;2.80;1.85;;;;;;;5.91;70.69;99121.66;10292717;28;20130;-62
2022/03/07 16:51:15;;;;;;;4.15;2.05;;;;;;;5.79;70.63;99112.72;10296325;28;20121;-63
2022/03/07 16:56:20;;;;;;;2.20;1.92;;;;;;;5.59;72.28;99116.84;10299155;28;21104;-62
2022/03/07 17:01:25;;;;;;;2.25;1.83;;;;;;;5.34;75.86;99113.31;10313588;28;20053;-60
2022/03/07 17:06:28;;;;;;;3.67;1.95;;;;;;;5.11;78.61;99121.16;10290474;28;20050;-59
2022/03/07 17:11:33;;;;;;;2.22;2.00;;;;;;;4.84;80.16;99124.81;10296561;28;20070;-62
2022/03/07 17:16:37;;;;;;;2.42;1.90;;;;;;;4.61;82.80;99121.06;10292621;28;20654;-63
2022/03/07 17:21:46;;;;;;;4.38;2.00;;;;;;;4.36;85.84;99121.88;10292911;28;20046;-56
2022/03/07 17:26:51;;;;;;;3.05;2.15;;;;;;;3.88;92.05;99120.59;10285088;28;20050;-57
2022/03/07 17:31:54;;;;;;;4.68;2.10;;;;;;;3.70;94.59;99123.50;10288098;28;20126;-63
2022/03/07 17:36:59;;;;;;;4.03;2.08;;;;;;;3.48;97.10;99120.53;10280171;28;20059;-66
2022/03/07 17:42:05;;;;;;;3.30;1.83;;;;;;;3.31;100.00;99134.94;10283127;28;20047;-61
2022/03/07 17:47:08;;;;;;;2.47;1.63;;;;;;;3.10;100.00;99131.84;10285568;28;20444;-59
2022/03/07 17:52:12;;;;;;;4.25;3.50;;;;;;;2.87;100.00;99137.63;10282944;28;20049;-61
2022/03/07 17:57:17;;;;;;;4.30;3.50;;;;;;;2.68;100.00;99140.56;10284679;28;20105;-63
2022/03/07 18:02:20;;;;;;;3.75;3.00;;;;;;;2.55;100.00;99142.25;10291098;28;20118;-62
2022/03/07 18:07:25;;;;;;;4.93;3.30;;;;;;;2.35;100.00;99138.16;10304337;28;20057;-63
2022/03/07 18:12:32;;;;;;;4.18;3.10;;;;;;;2.20;100.00;99142.53;10294347;28;20074;-63
2022/03/07 18:17:35;;;;;;;6.15;3.30;;;;;;;2.08;100.00;99155.59;10292811;28;20054;-62
2022/03/07 18:22:38;;;;;;;3.88;3.40;;;;;;;1.97;100.00;99160.69;10290957;28;20071;-65
2022/03/07 18:27:43;;;;;;;3.88;3.38;;;;;;;1.87;100.00;99162.16;10311883;28;20134;-62
2022/03/07 18:32:47;;;;;;;3.85;3.38;;;;;;;1.76;100.00;99165.47;10299913;28;20133;-61
2022/03/07 18:37:50;;;;;;;3.92;3.63;;;;;;;1.64;100.00;99156.34;10297752;28;20051;-64
2022/03/07 18:42:55;;;;;;;6.15;3.70;;;;;;;1.58;100.00;99165.53;10298022;28;20459;-64
2022/03/07 18:47:59;;;;;;;4.65;4.07;;;;;;;1.51;100.00;99166.84;10301467;28;20084;-60
2022/03/07 18:53:02;;;;;;;5.25;4.00;;;;;;;1.46;100.00;99160.91;10299524;28;20125;-62
2022/03/07 18:58:06;;;;;;;4.43;3.80;;;;;;;1.38;100.00;99175.47;10304266;28;20124;-61
2022/03/07 19:03:10;;;;;;;4.32;3.67;;;;;;;1.30;100.00;99176.81;10291610;28;20043;-60
2022/03/07 19:08:13;;;;;;;5.32;4.32;;;;;;;1.22;100.00;99179.88;10284547;28;20125;-59
2022/03/07 19:13:17;;;;;;;7.70;4.28;;;;;;;1.14;100.00;99180.31;10293353;28;20061;-59
2022/03/07 19:24:26;;;;;;;5.15;4.00;;;;;;;0.94;100.00;99177.88;10294785;28;20043;-62
2022/03/07 19:29:30;;;;;;;7.10;4.60;;;;;;;0.76;100.00;99176.09;10301440;28;20049;-62
2022/03/07 19:34:34;;;;;;;6.97;5.28;;;;;;;0.57;100.00;99176.19;10295702;28;20082;-62
2022/03/07 19:39:37;;;;;;;8.75;7.82;;;;;;;0.51;100.00;99184.50;10298625;28;20134;-61
2022/03/07 19:44:42;;;;;;;6.15;5.40;;;;;;;0.47;100.00;99176.78;10293679;28;20042;-60
2022/03/07 19:49:47;;;;;;;5.80;5.25;;;;;;;0.43;100.00;99176.06;10297614;28;20104;-60
2022/03/07 19:54:50;;;;;;;5.25;4.75;;;;;;;0.39;100.00;99178.00;10298707;28;20089;-58
2022/03/07 19:59:55;;;;;;;8.95;4.60;;;;;;;0.34;100.00;99182.69;10304140;28;20125;-60
2022/03/07 20:04:58;;;;;;;5.35;4.90;;;;;;;0.30;100.00;99187.28;10303375;28;20562;-62
2022/03/07 20:10:01;;;;;;;5.25;4.75;;;;;;;0.24;100.00;99184.06;10303610;28;20053;-63
2022/03/07 20:15:07;;;;;;;5.38;4.65;;;;;;;0.20;100.00;99193.97;10309297;28;20060;-65
2022/03/07 20:20:12;;;;;;;6.60;4.78;;;;;;;0.13;100.00;99184.63;10297246;28;20049;-61
2022/03/07 20:25:16;;;;;;;5.80;5.25;;;;;;;0.09;100.00;99191.00;10314536;28;20038;-62
2022/03/07 20:30:21;;;;;;;5.53;5.03;;;;;;;0.04;100.00;99193.03;10315778;28;20042;-61
2022/03/07 20:35:25;;;;;;;7.15;5.38;;;;;;;0.00;100.00;99200.28;10305650;28;20062;-61
2022/03/07 20:40:29;;;;;;;5.82;4.97;;;;;;;-0.04;100.00;99196.91;10309652;28;20046;-59
2022/03/07 20:45:33;;;;;;;6.03;5.30;;;;;;;-0.08;100.00;99205.06;10310575;28;20495;-61
2022/03/07 20:50:36;;;;;;;5.93;5.32;;;;;;;-0.14;100.00;99208.88;10309160;28;20455;-60
2022/03/07 20:55:40;;;;;;;6.80;5.18;;;;;;;-0.17;100.00;99206.38;10311606;28;20141;-62
2022/03/07 21:00:45;;;;;;;6.10;5.50;;;;;;;-0.23;100.00;99220.75;10311604;28;20549;-60
2022/03/07 21:05:48;;;;;;;6.40;5.80;;;;;;;-0.26;100.00;99217.41;10308673;28;20053;-61
2022/03/07 21:10:52;;;;;;;7.32;5.70;;;;;;;-0.31;100.00;99217.63;10304935;28;20507;-60
2022/03/07 21:15:56;;;;;;;6.22;5.57;;;;;;;-0.36;100.00;99223.16;10314350;28;20092;-59
2022/03/07 21:21:00;;;;;;;6.53;5.93;;;;;;;-0.38;100.00;99217.06;10310435;28;20035;-62
2022/03/07 21:26:03;;;;;;;7.03;6.00;;;;;;;-0.47;100.00;99214.84;10309331;28;20114;-62
2022/03/07 21:31:16;;;;;;;8.55;6.30;;;;;;;-0.56;100.00;99221.44;10335101;28;20057;-61
2022/03/07 21:36:19;;;;;;;7.50;6.47;;;;;;;-0.59;100.00;99223.38;10344734;28;20509;-61
2022/03/07 21:41:22;;;;;;;7.75;6.80;;;;;;;-0.66;100.00;99226.31;10311175;28;20491;-63
2022/03/07 21:46:27;;;;;;;9.18;6.10;;;;;;;-0.74;100.00;99233.72;10304273;28;20093;-58
2022/03/07 21:51:32;;;;;;;7.03;6.32;;;;;;;-0.80;100.00;99234.84;10312373;28;20054;-61
2022/03/07 21:56:36;;;;;;;7.13;6.50;;;;;;;-0.83;100.00;99234.13;10311878;28;20364;-60
2022/03/07 22:01:41;;;;;;;7.93;6.88;;;;;;;-0.88;100.00;99238.78;10306073;28;20113;-61
2022/03/07 22:06:44;;;;;;;7.53;6.82;;;;;;;-0.92;100.00;99230.13;10309621;28;20859;-60
2022/03/07 22:11:47;;;;;;;8.30;7.30;;;;;;;-1.02;100.00;99237.63;10315377;28;20125;-61
2022/03/07 22:16:51;;;;;;;7.93;7.13;;;;;;;-1.05;100.00;99237.75;10310599;28;20474;-61
2022/03/07 22:21:55;;;;;;;8.40;6.88;;;;;;;-1.06;100.00;99237.81;10311547;28;20041;-60
2022/03/07 22:26:58;;;;;;;8.00;7.30;;;;;;;-1.10;100.00;99232.66;10314589;28;20153;-60
2022/03/07 22:32:04;;;;;;;8.00;7.30;;;;;;;-1.13;100.00;99231.94;10312332;28;20360;-61
2022/03/07 22:37:07;;;;;;;9.90;7.30;;;;;;;-1.17;100.00;99236.47;10315458;28;20126;-60
2022/03/07 22:42:10;;;;;;;8.15;7.35;;;;;;;-1.22;100.00;99230.56;10318365;28;20508;-61
2022/03/07 22:47:15;;;;;;;8.57;7.72;;;;;;;-1.24;100.00;99232.41;10315005;28;20566;-61
2022/03/07 22:52:18;;;;;;;8.20;7.40;;;;;;;-1.30;100.00;99228.25;10309533;28;20125;-60
2022/03/07 22:57:21;;;;;;;9.10;8.20;;;;;;;-1.33;100.00;99232.81;10317900;28;20042;-61
2022/03/07 23:02:25;;;;;;;8.52;7.72;;;;;;;-1.40;100.00;99224.28;10305719;28;20491;-61
2022/03/07 23:07:29;;;;;;;8.63;7.82;;;;;;;-1.43;100.00;99230.56;10310262;28;20042;-61
2022/03/07 23:12:32;;;;;;;9.68;8.73;;;;;;;-1.60;100.00;99239.22;10311363;28;20035;-60
2022/03/07 23:17:36;;;;;;;9.82;8.88;;;;;;;-1.72;100.00;99239.72;10312366;28;20396;-60
2022/03/07 23:22:40;;;;;;;9.23;8.15;;;;;;;-1.89;100.00;99235.97;10312592;28;20050;-59
2022/03/07 23:27:43;;;;;;;9.00;8.10;;;;;;;-1.91;100.00;99239.59;10313935;28;20043;-59
2022/03/07 23:32:48;;;;;;;9.32;8.43;;;;;;;-1.99;100.00;99223.19;10307777;28;20113;-59
2022/03/07 23:37:51;;;;;;;17.80;13.25;;;;;;;-2.06;100.00;99219.97;10301023;28;20050;-60
2022/03/07 23:42:55;;;;;;;10.30;9.30;;;;;;;-2.09;100.00;99214.81;10296259;28;20046;-60